sensor_id;sensor_type;location;lat;lon;timestamp;pressure;altitude;pressure_sealevel;temperature;humidity
56600;BME280;51832;48.152;11.530;2023-07-29T00:03:29;95227.38;;;20.52;99.75
56600;BME280;51832;48.152;11.530;2023-07-29T00:08:32;95218.66;;;20.46;100.00
56600;BME280;51832;48.152;11.530;2023-07-29T00:13:33;95214.16;;;20.42;99.67
56600;BME280;51832;48.152;11.530;2023-07-29T00:18:33;95217.63;;;20.42;99.42
56600;BME280;51832;48.152;11.530;2023-07-29T00:23:34;95212.00;;;20.44;99.13
56600;BME280;51832;48.152;11.530;2023-07-29T00:28:34;95210.34;;;20.48;98.63
56600;BME280;51832;48.152;11.530;2023-07-29T00:33:34;95203.41;;;20.47;98.11
56600;BME280;51832;48.152;11.530;2023-07-29T00:38:35;95191.13;;;20.46;98.32
56600;BME280;51832;48.152;11.530;2023-07-29T00:43:35;95200.16;;;20.50;97.24
56600;BME280;51832;48.152;11.530;2023-07-29T00:48:36;95192.72;;;20.47;96.85
56600;BME280;51832;48.152;11.530;2023-07-29T00:53:37;95196.81;;;20.58;96.76
56600;BME280;51832;48.152;11.530;2023-07-29T00:58:37;95197.56;;;20.64;96.26
56600;BME280;51832;48.152;11.530;2023-07-29T01:03:38;95199.84;;;20.70;95.80
56600;BME280;51832;48.152;11.530;2023-07-29T01:14:17;95202.84;;;20.50;96.18
56600;BME280;51832;48.152;11.530;2023-07-29T01:24:49;95171.47;;;20.55;96.26
56600;BME280;51832;48.152;11.530;2023-07-29T01:29:50;95187.34;;;20.28;97.58
56600;BME280;51832;48.152;11.530;2023-07-29T01:34:59;95179.38;;;20.23;98.01
56600;BME280;51832;48.152;11.530;2023-07-29T01:40:03;95182.38;;;20.21;98.43
56600;BME280;51832;48.152;11.530;2023-07-29T01:45:06;95171.53;;;20.32;98.46
56600;BME280;51832;48.152;11.530;2023-07-29T01:50:07;95163.38;;;20.42;97.40
56600;BME280;51832;48.152;11.530;2023-07-29T01:55:08;95168.56;;;20.33;97.21
56600;BME280;51832;48.152;11.530;2023-07-29T02:00:09;95168.16;;;20.45;97.17
56600;BME280;51832;48.152;11.530;2023-07-29T02:05:09;95164.97;;;20.43;97.44
56600;BME280;51832;48.152;11.530;2023-07-29T02:10:09;95169.59;;;20.37;97.47
56600;BME280;51832;48.152;11.530;2023-07-29T02:15:10;95156.72;;;20.20;97.91
56600;BME280;51832;48.152;11.530;2023-07-29T02:20:10;95156.66;;;20.07;98.76
56600;BME280;51832;48.152;11.530;2023-07-29T02:25:11;95157.38;;;19.94;98.84
56600;BME280;51832;48.152;11.530;2023-07-29T02:30:11;95164.59;;;19.93;98.92
56600;BME280;51832;48.152;11.530;2023-07-29T02:35:12;95170.56;;;20.04;98.81
56600;BME280;51832;48.152;11.530;2023-07-29T02:40:13;95171.00;;;19.92;99.09
56600;BME280;51832;48.152;11.530;2023-07-29T02:45:13;95181.03;;;20.00;99.09
56600;BME280;51832;48.152;11.530;2023-07-29T02:50:13;95170.72;;;19.94;99.34
56600;BME280;51832;48.152;11.530;2023-07-29T02:55:14;95176.84;;;19.94;98.75
56600;BME280;51832;48.152;11.530;2023-07-29T03:00:14;95161.75;;;19.84;98.90
56600;BME280;51832;48.152;11.530;2023-07-29T03:05:15;95161.53;;;19.81;98.61
56600;BME280;51832;48.152;11.530;2023-07-29T03:10:16;95164.91;;;19.68;99.14
56600;BME280;51832;48.152;11.530;2023-07-29T03:15:16;95159.75;;;19.52;99.59
56600;BME280;51832;48.152;11.530;2023-07-29T03:20:16;95160.31;;;19.49;99.45
56600;BME280;51832;48.152;11.530;2023-07-29T03:25:18;95167.75;;;19.47;100.00
56600;BME280;51832;48.152;11.530;2023-07-29T03:30:21;95148.94;;;19.63;98.73
56600;BME280;51832;48.152;11.530;2023-07-29T03:35:22;95141.72;;;19.63;97.80
56600;BME280;51832;48.152;11.530;2023-07-29T03:40:22;95149.22;;;19.61;97.77
56600;BME280;51832;48.152;11.530;2023-07-29T03:45:22;95164.56;;;19.50;98.11
56600;BME280;51832;48.152;11.530;2023-07-29T03:50:23;95164.81;;;19.54;97.69
56600;BME280;51832;48.152;11.530;2023-07-29T03:55:24;95171.22;;;19.48;98.18
56600;BME280;51832;48.152;11.530;2023-07-29T04:00:25;95161.50;;;19.62;97.49
56600;BME280;51832;48.152;11.530;2023-07-29T04:05:25;95156.78;;;20.34;94.33
56600;BME280;51832;48.152;11.530;2023-07-29T04:10:26;95137.47;;;20.75;92.13
56600;BME280;51832;48.152;11.530;2023-07-29T04:15:26;95137.66;;;20.78;90.48
56600;BME280;51832;48.152;11.530;2023-07-29T04:20:27;95134.59;;;21.17;90.09
56600;BME280;51832;48.152;11.530;2023-07-29T04:25:27;95120.06;;;21.23;89.60
56600;BME280;51832;48.152;11.530;2023-07-29T04:30:28;95118.22;;;21.05;89.19
56600;BME280;51832;48.152;11.530;2023-07-29T04:35:29;95121.66;;;20.92;90.80
56600;BME280;51832;48.152;11.530;2023-07-29T04:40:29;95118.66;;;20.80;91.75
56600;BME280;51832;48.152;11.530;2023-07-29T04:45:32;95120.50;;;20.66;91.74
56600;BME280;51832;48.152;11.530;2023-07-29T04:50:33;95126.47;;;20.63;93.05
56600;BME280;51832;48.152;11.530;2023-07-29T04:55:33;95119.31;;;20.90;90.92
56600;BME280;51832;48.152;11.530;2023-07-29T05:00:33;95127.03;;;21.06;90.55
56600;BME280;51832;48.152;11.530;2023-07-29T05:05:34;95120.94;;;21.19;89.34
56600;BME280;51832;48.152;11.530;2023-07-29T05:10:34;95121.56;;;21.30;89.50
56600;BME280;51832;48.152;11.530;2023-07-29T05:15:35;95109.06;;;21.25;89.88
56600;BME280;51832;48.152;11.530;2023-07-29T05:20:35;95100.44;;;21.55;87.84
56600;BME280;51832;48.152;11.530;2023-07-29T05:25:35;95089.56;;;21.74;87.05
56600;BME280;51832;48.152;11.530;2023-07-29T05:30:36;95104.81;;;22.01;86.65
56600;BME280;51832;48.152;11.530;2023-07-29T05:35:37;95106.81;;;21.95;85.57
56600;BME280;51832;48.152;11.530;2023-07-29T05:40:38;95119.50;;;22.04;86.39
56600;BME280;51832;48.152;11.530;2023-07-29T05:45:38;95114.88;;;21.82;86.25
56600;BME280;51832;48.152;11.530;2023-07-29T05:50:38;95122.50;;;21.61;87.96
56600;BME280;51832;48.152;11.530;2023-07-29T05:55:39;95121.84;;;21.55;88.63
56600;BME280;51832;48.152;11.530;2023-07-29T06:00:39;95165.31;;;21.20;89.77
56600;BME280;51832;48.152;11.530;2023-07-29T06:05:40;95149.50;;;21.05;91.91
56600;BME280;51832;48.152;11.530;2023-07-29T06:10:40;95102.38;;;21.09;92.72
56600;BME280;51832;48.152;11.530;2023-07-29T06:15:41;95108.13;;;21.02;93.02
56600;BME280;51832;48.152;11.530;2023-07-29T06:20:41;95104.31;;;20.76;95.10
56600;BME280;51832;48.152;11.530;2023-07-29T06:25:41;95122.81;;;21.32;93.12
56600;BME280;51832;48.152;11.530;2023-07-29T06:30:42;95125.03;;;21.30;92.93
56600;BME280;51832;48.152;11.530;2023-07-29T06:35:42;95137.78;;;21.33;92.79
56600;BME280;51832;48.152;11.530;2023-07-29T06:40:43;95144.19;;;21.18;93.53
56600;BME280;51832;48.152;11.530;2023-07-29T06:45:43;95167.88;;;21.11;95.11
56600;BME280;51832;48.152;11.530;2023-07-29T06:50:44;95205.69;;;20.53;97.78
56600;BME280;51832;48.152;11.530;2023-07-29T06:55:44;95216.03;;;20.41;100.00
56600;BME280;51832;48.152;11.530;2023-07-29T07:00:45;95221.59;;;20.45;100.00
56600;BME280;51832;48.152;11.530;2023-07-29T07:05:45;95222.28;;;20.32;100.00
56600;BME280;51832;48.152;11.530;2023-07-29T07:10:47;95201.59;;;20.42;100.00
56600;BME280;51832;48.152;11.530;2023-07-29T07:15:47;95196.81;;;20.39;100.00
56600;BME280;51832;48.152;11.530;2023-07-29T07:20:49;95191.41;;;20.44;100.00
56600;BME280;51832;48.152;11.530;2023-07-29T07:25:50;95193.22;;;20.49;100.00
56600;BME280;51832;48.152;11.530;2023-07-29T07:30:51;95182.03;;;20.47;100.00
56600;BME280;51832;48.152;11.530;2023-07-29T07:35:51;95156.91;;;20.24;100.00
56600;BME280;51832;48.152;11.530;2023-07-29T07:40:55;95154.13;;;20.34;100.00
56600;BME280;51832;48.152;11.530;2023-07-29T07:46:01;95135.75;;;20.65;100.00
56600;BME280;51832;48.152;11.530;2023-07-29T07:51:12;95126.34;;;21.00;100.00
56600;BME280;51832;48.152;11.530;2023-07-29T07:56:13;95127.13;;;21.01;100.00
56600;BME280;51832;48.152;11.530;2023-07-29T08:01:14;95128.41;;;20.89;100.00
56600;BME280;51832;48.152;11.530;2023-07-29T08:06:14;95143.19;;;21.01;100.00
56600;BME280;51832;48.152;11.530;2023-07-29T08:11:14;95135.81;;;21.25;100.00
56600;BME280;51832;48.152;11.530;2023-07-29T08:16:15;95130.78;;;21.05;100.00
56600;BME280;51832;48.152;11.530;2023-07-29T08:21:15;95140.38;;;21.38;99.84
56600;BME280;51832;48.152;11.530;2023-07-29T08:26:16;95139.88;;;21.22;100.00
56600;BME280;51832;48.152;11.530;2023-07-29T08:31:16;95143.47;;;21.59;100.00
56600;BME280;51832;48.152;11.530;2023-07-29T08:36:17;95145.41;;;21.94;98.91
56600;BME280;51832;48.152;11.530;2023-07-29T08:46:47;95139.75;;;21.96;95.41
56600;BME280;51832;48.152;11.530;2023-07-29T08:51:48;95140.34;;;21.93;95.07
56600;BME280;51832;48.152;11.530;2023-07-29T08:56:49;95155.63;;;22.06;93.29
56600;BME280;51832;48.152;11.530;2023-07-29T09:01:51;95147.47;;;22.25;93.25
56600;BME280;51832;48.152;11.530;2023-07-29T09:06:56;95146.63;;;22.38;93.35
56600;BME280;51832;48.152;11.530;2023-07-29T09:11:57;95144.78;;;22.47;93.49
56600;BME280;51832;48.152;11.530;2023-07-29T09:16:58;95146.13;;;22.58;92.48
56600;BME280;51832;48.152;11.530;2023-07-29T09:21:59;95146.13;;;23.03;92.79
56600;BME280;51832;48.152;11.530;2023-07-29T09:27:00;95149.34;;;23.14;90.25
56600;BME280;51832;48.152;11.530;2023-07-29T09:32:23;95138.06;;;23.65;89.02
56600;BME280;51832;48.152;11.530;2023-07-29T09:37:24;95146.59;;;23.67;88.76
56600;BME280;51832;48.152;11.530;2023-07-29T09:42:24;95138.97;;;24.17;84.31
56600;BME280;51832;48.152;11.530;2023-07-29T09:47:26;95144.69;;;24.33;82.13
56600;BME280;51832;48.152;11.530;2023-07-29T09:52:26;95128.06;;;24.74;81.92
56600;BME280;51832;48.152;11.530;2023-07-29T09:57:27;95126.81;;;24.97;78.93
56600;BME280;51832;48.152;11.530;2023-07-29T10:02:27;95131.69;;;24.78;77.56
56600;BME280;51832;48.152;11.530;2023-07-29T10:07:29;95124.06;;;25.14;77.65
56600;BME280;51832;48.152;11.530;2023-07-29T10:12:31;95117.16;;;24.70;78.41
56600;BME280;51832;48.152;11.530;2023-07-29T10:17:36;95117.97;;;25.35;76.93
56600;BME280;51832;48.152;11.530;2023-07-29T10:22:42;95126.59;;;25.02;76.98
56600;BME280;51832;48.152;11.530;2023-07-29T10:27:53;95108.19;;;25.22;75.08
56600;BME280;51832;48.152;11.530;2023-07-29T10:32:58;95101.09;;;25.55;74.42
56600;BME280;51832;48.152;11.530;2023-07-29T10:38:00;95087.97;;;25.83;72.87
56600;BME280;51832;48.152;11.530;2023-07-29T10:43:03;95090.63;;;26.33;72.33
56600;BME280;51832;48.152;11.530;2023-07-29T10:48:13;95096.06;;;26.25;70.99
56600;BME280;51832;48.152;11.530;2023-07-29T10:53:16;95091.59;;;26.08;70.25
56600;BME280;51832;48.152;11.530;2023-07-29T10:58:16;95108.66;;;26.41;69.90
56600;BME280;51832;48.152;11.530;2023-07-29T11:03:17;95092.66;;;26.15;71.07
56600;BME280;51832;48.152;11.530;2023-07-29T11:13:22;95106.13;;;26.15;71.68
56600;BME280;51832;48.152;11.530;2023-07-29T11:18:22;95118.56;;;24.85;68.48
56600;BME280;51832;48.152;11.530;2023-07-29T11:23:31;95143.09;;;24.23;68.68
56600;BME280;51832;48.152;11.530;2023-07-29T11:28:38;95110.88;;;24.32;68.74
56600;BME280;51832;48.152;11.530;2023-07-29T11:33:39;95121.06;;;23.87;70.56
56600;BME280;51832;48.152;11.530;2023-07-29T11:38:39;95114.81;;;24.52;69.12
56600;BME280;51832;48.152;11.530;2023-07-29T11:43:40;95104.69;;;24.57;69.37
56600;BME280;51832;48.152;11.530;2023-07-29T11:48:44;95111.63;;;24.67;69.63
56600;BME280;51832;48.152;11.530;2023-07-29T11:53:45;95094.25;;;25.20;68.10
56600;BME280;51832;48.152;11.530;2023-07-29T11:58:45;95102.31;;;25.66;67.01
56600;BME280;51832;48.152;11.530;2023-07-29T12:03:46;95091.34;;;26.22;64.99
56600;BME280;51832;48.152;11.530;2023-07-29T12:08:46;95075.25;;;26.34;64.60
56600;BME280;51832;48.152;11.530;2023-07-29T12:13:47;95071.09;;;27.02;63.09
56600;BME280;51832;48.152;11.530;2023-07-29T12:18:50;95072.19;;;26.89;63.11
56600;BME280;51832;48.152;11.530;2023-07-29T12:23:50;95048.28;;;27.36;61.99
56600;BME280;51832;48.152;11.530;2023-07-29T12:28:51;95057.09;;;27.70;61.01
56600;BME280;51832;48.152;11.530;2023-07-29T12:33:56;95064.72;;;27.43;62.59
56600;BME280;51832;48.152;11.530;2023-07-29T12:38:59;95050.28;;;26.70;65.52
56600;BME280;51832;48.152;11.530;2023-07-29T12:43:59;95030.88;;;26.76;66.36
56600;BME280;51832;48.152;11.530;2023-07-29T12:49:00;95057.50;;;26.24;72.51
56600;BME280;51832;48.152;11.530;2023-07-29T12:54:00;95081.22;;;24.06;84.30
56600;BME280;51832;48.152;11.530;2023-07-29T12:59:02;95061.06;;;23.03;83.13
56600;BME280;51832;48.152;11.530;2023-07-29T13:04:03;95071.69;;;23.17;85.54
56600;BME280;51832;48.152;11.530;2023-07-29T13:09:03;95106.53;;;22.78;90.54
56600;BME280;51832;48.152;11.530;2023-07-29T13:14:05;95118.34;;;22.32;97.53
56600;BME280;51832;48.152;11.530;2023-07-29T13:19:06;95111.56;;;22.57;98.10
56600;BME280;51832;48.152;11.530;2023-07-29T13:24:06;95115.78;;;22.94;98.83
56600;BME280;51832;48.152;11.530;2023-07-29T13:29:06;95104.19;;;23.07;98.12
56600;BME280;51832;48.152;11.530;2023-07-29T13:34:07;95120.78;;;23.09;98.51
56600;BME280;51832;48.152;11.530;2023-07-29T13:39:07;95114.91;;;23.07;98.50
56600;BME280;51832;48.152;11.530;2023-07-29T13:44:10;95109.00;;;23.27;97.73
56600;BME280;51832;48.152;11.530;2023-07-29T13:49:10;95101.78;;;23.36;96.94
56600;BME280;51832;48.152;11.530;2023-07-29T13:54:11;95099.31;;;23.18;94.87
56600;BME280;51832;48.152;11.530;2023-07-29T13:59:11;95113.34;;;23.15;94.24
56600;BME280;51832;48.152;11.530;2023-07-29T14:04:12;95119.22;;;23.17;93.88
56600;BME280;51832;48.152;11.530;2023-07-29T14:09:12;95095.94;;;23.03;94.01
56600;BME280;51832;48.152;11.530;2023-07-29T14:14:13;95077.25;;;23.29;95.31
56600;BME280;51832;48.152;11.530;2023-07-29T14:19:13;95087.50;;;23.19;93.65
56600;BME280;51832;48.152;11.530;2023-07-29T14:24:13;95093.09;;;23.00;94.47
56600;BME280;51832;48.152;11.530;2023-07-29T14:29:15;95102.81;;;22.87;96.14
56600;BME280;51832;48.152;11.530;2023-07-29T14:34:15;95110.84;;;22.87;94.88
56600;BME280;51832;48.152;11.530;2023-07-29T14:39:16;95119.69;;;22.43;98.26
56600;BME280;51832;48.152;11.530;2023-07-29T14:44:16;95148.00;;;22.00;100.00
56600;BME280;51832;48.152;11.530;2023-07-29T14:49:16;95135.78;;;21.93;100.00
56600;BME280;51832;48.152;11.530;2023-07-29T14:54:17;95133.09;;;22.07;100.00
56600;BME280;51832;48.152;11.530;2023-07-29T14:59:17;95129.03;;;21.96;99.35
56600;BME280;51832;48.152;11.530;2023-07-29T15:04:17;95102.28;;;21.82;98.97
56600;BME280;51832;48.152;11.530;2023-07-29T15:09:18;95083.28;;;21.92;97.67
56600;BME280;51832;48.152;11.530;2023-07-29T15:14:18;95103.13;;;22.05;98.37
56600;BME280;51832;48.152;11.530;2023-07-29T15:19:19;95117.63;;;22.04;98.98
56600;BME280;51832;48.152;11.530;2023-07-29T15:24:19;95101.16;;;22.33;97.94
56600;BME280;51832;48.152;11.530;2023-07-29T15:29:20;95114.56;;;22.33;98.73
56600;BME280;51832;48.152;11.530;2023-07-29T15:34:21;95133.19;;;21.88;97.31
56600;BME280;51832;48.152;11.530;2023-07-29T15:39:23;95143.63;;;21.90;97.23
56600;BME280;51832;48.152;11.530;2023-07-29T15:44:24;95144.59;;;21.94;97.56
56600;BME280;51832;48.152;11.530;2023-07-29T15:49:24;95152.84;;;21.97;97.05
56600;BME280;51832;48.152;11.530;2023-07-29T15:54:25;95138.25;;;22.04;97.45
56600;BME280;51832;48.152;11.530;2023-07-29T15:59:25;95143.56;;;22.31;96.45
56600;BME280;51832;48.152;11.530;2023-07-29T16:04:26;95154.38;;;22.62;95.35
56600;BME280;51832;48.152;11.530;2023-07-29T16:09:26;95139.97;;;23.02;93.26
56600;BME280;51832;48.152;11.530;2023-07-29T16:14:28;95128.09;;;23.26;93.33
56600;BME280;51832;48.152;11.530;2023-07-29T16:19:29;95134.38;;;23.52;91.46
56600;BME280;51832;48.152;11.530;2023-07-29T16:24:29;95136.72;;;23.45;92.29
56600;BME280;51832;48.152;11.530;2023-07-29T16:29:30;95137.06;;;23.52;92.46
56600;BME280;51832;48.152;11.530;2023-07-29T16:34:30;95154.41;;;23.46;91.89
56600;BME280;51832;48.152;11.530;2023-07-29T16:39:31;95147.69;;;23.26;94.01
56600;BME280;51832;48.152;11.530;2023-07-29T16:44:31;95157.19;;;23.32;94.85
56600;BME280;51832;48.152;11.530;2023-07-29T16:49:32;95161.66;;;23.37;95.57
56600;BME280;51832;48.152;11.530;2023-07-29T16:54:32;95164.72;;;23.22;97.36
56600;BME280;51832;48.152;11.530;2023-07-29T16:59:33;95194.25;;;22.99;95.28
56600;BME280;51832;48.152;11.530;2023-07-29T17:04:33;95158.59;;;22.54;92.22
56600;BME280;51832;48.152;11.530;2023-07-29T17:09:33;95165.97;;;22.35;88.36
56600;BME280;51832;48.152;11.530;2023-07-29T17:14:34;95163.59;;;22.33;87.22
56600;BME280;51832;48.152;11.530;2023-07-29T17:19:35;95164.16;;;22.44;86.71
56600;BME280;51832;48.152;11.530;2023-07-29T17:24:35;95171.66;;;22.33;86.43
56600;BME280;51832;48.152;11.530;2023-07-29T17:29:35;95171.94;;;22.32;87.08
56600;BME280;51832;48.152;11.530;2023-07-29T17:34:36;95192.31;;;22.19;87.67
56600;BME280;51832;48.152;11.530;2023-07-29T17:39:36;95200.28;;;21.97;89.41
56600;BME280;51832;48.152;11.530;2023-07-29T17:44:41;95217.53;;;21.77;90.37
56600;BME280;51832;48.152;11.530;2023-07-29T17:49:41;95213.56;;;21.75;89.95
56600;BME280;51832;48.152;11.530;2023-07-29T17:54:41;95214.06;;;21.90;89.62
56600;BME280;51832;48.152;11.530;2023-07-29T17:59:42;95221.22;;;21.81;89.35
56600;BME280;51832;48.152;11.530;2023-07-29T18:04:42;95221.63;;;22.02;88.93
56600;BME280;51832;48.152;11.530;2023-07-29T18:09:43;95226.09;;;22.07;89.14
56600;BME280;51832;48.152;11.530;2023-07-29T18:14:44;95207.84;;;22.09;88.70
56600;BME280;51832;48.152;11.530;2023-07-29T18:19:45;95210.09;;;22.15;88.97
56600;BME280;51832;48.152;11.530;2023-07-29T18:24:45;95198.25;;;22.30;88.21
56600;BME280;51832;48.152;11.530;2023-07-29T18:29:46;95212.97;;;22.19;88.40
56600;BME280;51832;48.152;11.530;2023-07-29T18:34:46;95205.53;;;22.16;88.78
56600;BME280;51832;48.152;11.530;2023-07-29T18:39:47;95219.72;;;22.16;88.44
56600;BME280;51832;48.152;11.530;2023-07-29T18:44:47;95220.41;;;22.22;88.54
56600;BME280;51832;48.152;11.530;2023-07-29T18:49:48;95222.41;;;22.03;88.73
56600;BME280;51832;48.152;11.530;2023-07-29T18:54:49;95207.81;;;21.95;89.07
56600;BME280;51832;48.152;11.530;2023-07-29T18:59:51;95208.59;;;21.95;89.38
56600;BME280;51832;48.152;11.530;2023-07-29T19:04:51;95206.59;;;21.87;88.99
56600;BME280;51832;48.152;11.530;2023-07-29T19:09:52;95203.34;;;22.04;88.68
56600;BME280;51832;48.152;11.530;2023-07-29T19:14:57;95214.25;;;21.80;88.53
56600;BME280;51832;48.152;11.530;2023-07-29T19:19:57;95214.88;;;22.05;87.81
56600;BME280;51832;48.152;11.530;2023-07-29T19:24:58;95222.28;;;21.94;88.19
56600;BME280;51832;48.152;11.530;2023-07-29T19:29:59;95216.25;;;22.02;87.25
56600;BME280;51832;48.152;11.530;2023-07-29T19:34:59;95216.16;;;21.66;88.40
56600;BME280;51832;48.152;11.530;2023-07-29T19:40:00;95207.31;;;21.66;88.49
56600;BME280;51832;48.152;11.530;2023-07-29T19:45:00;95208.09;;;21.52;88.90
56600;BME280;51832;48.152;11.530;2023-07-29T19:50:00;95204.41;;;21.48;88.80
56600;BME280;51832;48.152;11.530;2023-07-29T19:55:01;95201.25;;;21.60;88.60
56600;BME280;51832;48.152;11.530;2023-07-29T20:00:01;95211.09;;;21.64;88.30
56600;BME280;51832;48.152;11.530;2023-07-29T20:05:02;95207.09;;;21.62;88.66
56600;BME280;51832;48.152;11.530;2023-07-29T20:10:03;95204.53;;;21.57;88.72
56600;BME280;51832;48.152;11.530;2023-07-29T20:15:03;95210.50;;;21.68;88.94
56600;BME280;51832;48.152;11.530;2023-07-29T20:20:05;95206.03;;;21.90;87.84
56600;BME280;51832;48.152;11.530;2023-07-29T20:25:06;95206.44;;;21.97;87.40
56600;BME280;51832;48.152;11.530;2023-07-29T20:30:07;95213.09;;;21.86;88.08
56600;BME280;51832;48.152;11.530;2023-07-29T20:35:07;95201.78;;;22.03;87.34
56600;BME280;51832;48.152;11.530;2023-07-29T20:40:08;95207.41;;;21.88;88.00
56600;BME280;51832;48.152;11.530;2023-07-29T20:45:09;95215.78;;;22.00;87.03
56600;BME280;51832;48.152;11.530;2023-07-29T20:50:10;95219.22;;;22.01;87.33
56600;BME280;51832;48.152;11.530;2023-07-29T20:55:11;95218.03;;;22.07;87.07
56600;BME280;51832;48.152;11.530;2023-07-29T21:00:11;95225.59;;;22.05;87.16
56600;BME280;51832;48.152;11.530;2023-07-29T21:05:11;95234.09;;;21.93;87.26
56600;BME280;51832;48.152;11.530;2023-07-29T21:10:12;95230.72;;;21.74;87.51
56600;BME280;51832;48.152;11.530;2023-07-29T21:15:12;95230.81;;;21.55;88.27
56600;BME280;51832;48.152;11.530;2023-07-29T21:20:13;95222.75;;;21.27;88.65
56600;BME280;51832;48.152;11.530;2023-07-29T21:25:13;95220.16;;;21.36;88.78
56600;BME280;51832;48.152;11.530;2023-07-29T21:30:14;95211.06;;;21.51;87.96
56600;BME280;51832;48.152;11.530;2023-07-29T21:35:14;95205.31;;;21.30;88.26
56600;BME280;51832;48.152;11.530;2023-07-29T21:40:15;95212.31;;;21.26;88.22
56600;BME280;51832;48.152;11.530;2023-07-29T21:45:15;95212.47;;;21.16;88.53
56600;BME280;51832;48.152;11.530;2023-07-29T21:50:16;95214.22;;;21.39;87.29
56600;BME280;51832;48.152;11.530;2023-07-29T21:55:16;95217.00;;;21.34;87.38
56600;BME280;51832;48.152;11.530;2023-07-29T22:00:17;95230.63;;;21.19;87.31
56600;BME280;51832;48.152;11.530;2023-07-29T22:05:17;95225.31;;;21.33;86.62
56600;BME280;51832;48.152;11.530;2023-07-29T22:10:18;95225.22;;;21.05;87.08
56600;BME280;51832;48.152;11.530;2023-07-29T22:15:18;95229.28;;;21.03;86.26
56600;BME280;51832;48.152;11.530;2023-07-29T22:20:21;95227.69;;;21.34;85.72
56600;BME280;51832;48.152;11.530;2023-07-29T22:25:22;95229.41;;;21.11;86.09
56600;BME280;51832;48.152;11.530;2023-07-29T22:30:22;95206.97;;;21.26;85.19
56600;BME280;51832;48.152;11.530;2023-07-29T22:35:23;95201.13;;;21.24;85.30
56600;BME280;51832;48.152;11.530;2023-07-29T22:40:23;95209.16;;;21.05;85.78
56600;BME280;51832;48.152;11.530;2023-07-29T22:45:23;95218.25;;;21.23;85.02
56600;BME280;51832;48.152;11.530;2023-07-29T22:50:24;95210.16;;;21.28;85.06
56600;BME280;51832;48.152;11.530;2023-07-29T22:55:24;95210.38;;;21.45;83.75
56600;BME280;51832;48.152;11.530;2023-07-29T23:00:25;95204.34;;;21.53;83.33
56600;BME280;51832;48.152;11.530;2023-07-29T23:05:25;95196.78;;;21.42;84.21
56600;BME280;51832;48.152;11.530;2023-07-29T23:10:26;95195.81;;;21.79;82.44
56600;BME280;51832;48.152;11.530;2023-07-29T23:15:35;95191.25;;;21.52;82.98
56600;BME280;51832;48.152;11.530;2023-07-29T23:20:35;95185.50;;;21.58;83.22
56600;BME280;51832;48.152;11.530;2023-07-29T23:25:36;95190.75;;;21.50;83.56
56600;BME280;51832;48.152;11.530;2023-07-29T23:30:36;95182.22;;;21.48;83.72
56600;BME280;51832;48.152;11.530;2023-07-29T23:35:38;95179.25;;;21.49;83.80
56600;BME280;51832;48.152;11.530;2023-07-29T23:40:38;95177.56;;;21.67;83.24
56600;BME280;51832;48.152;11.530;2023-07-29T23:45:38;95173.50;;;21.56;83.38
56600;BME280;51832;48.152;11.530;2023-07-29T23:50:39;95167.34;;;21.55;83.31
56600;BME280;51832;48.152;11.530;2023-07-29T23:55:40;95169.31;;;21.22;85.04
